createdAt,value
2023-03-29T00:03:02.553Z,101492.00
2023-03-29T00:08:05.746Z,101483.34
2023-03-29T00:13:08.612Z,101480.75
2023-03-29T00:18:12.795Z,101468.66
2023-03-29T00:23:15.968Z,101466.94
2023-03-29T00:28:18.959Z,101462.59
2023-03-29T00:33:23.172Z,101449.59
2023-03-29T00:38:26.342Z,101440.13
2023-03-29T00:43:29.208Z,101440.97
2023-03-29T00:48:33.540Z,101433.19
2023-03-29T00:53:39.662Z,101437.53
2023-03-29T00:58:45.838Z,101427.97
2023-03-29T01:03:54.386Z,101417.59
2023-03-29T01:08:59.588Z,101424.50
2023-03-29T01:14:04.728Z,101433.19
2023-03-29T01:19:11.679Z,101421.94
2023-03-29T01:24:41.951Z,101418.47
2023-03-29T01:29:49.042Z,101403.72
2023-03-29T01:34:56.564Z,101408.94
2023-03-29T01:39:59.552Z,101396.81
2023-03-29T01:45:09.912Z,101388.13
2023-03-29T01:50:15.873Z,101393.31
2023-03-29T01:55:21.811Z,101389.88
2023-03-29T02:00:27.742Z,101383.78
2023-03-29T02:05:31.603Z,101379.41
2023-03-29T02:10:35.370Z,101376.00
2023-03-29T02:15:40.849Z,101362.09
2023-03-29T02:20:47.304Z,101365.50
2023-03-29T02:25:53.469Z,101366.44
2023-03-29T02:31:04.716Z,101350.81
2023-03-29T02:36:14.448Z,101348.16
2023-03-29T02:41:17.993Z,101346.50
2023-03-29T02:46:22.562Z,101340.34
2023-03-29T02:51:27.441Z,101336.84
2023-03-29T02:56:30.619Z,101324.69
2023-03-29T03:01:36.759Z,101308.16
2023-03-29T03:06:39.966Z,101313.34
2023-03-29T03:11:42.862Z,101304.75
2023-03-29T03:16:47.303Z,101309.88
2023-03-29T03:21:50.994Z,101305.50
2023-03-29T03:26:54.476Z,101305.47
2023-03-29T03:31:58.665Z,101295.84
2023-03-29T03:37:20.111Z,101293.22
2023-03-29T03:42:23.124Z,101300.22
2023-03-29T03:47:27.334Z,101297.59
2023-03-29T03:52:32.847Z,101298.50
2023-03-29T03:57:37.522Z,101298.41
2023-03-29T04:02:42.876Z,101293.16
2023-03-29T04:07:45.907Z,101286.97
2023-03-29T04:13:08.998Z,101299.16
2023-03-29T04:18:34.426Z,101295.75
2023-03-29T04:23:37.777Z,101279.25
2023-03-29T04:28:41.894Z,101276.69
2023-03-29T04:33:53.397Z,101261.91
2023-03-29T04:38:56.969Z,101261.06
2023-03-29T04:44:03.514Z,101258.41
2023-03-29T04:49:08.970Z,101254.06
2023-03-29T04:54:15.752Z,101272.28
2023-03-29T04:59:41.443Z,101263.50
2023-03-29T05:04:56.856Z,101265.13
2023-03-29T05:10:00.803Z,101267.75
2023-03-29T05:15:03.913Z,101260.66
2023-03-29T05:20:11.777Z,101268.41
2023-03-29T05:25:17.513Z,101260.56
2023-03-29T05:30:20.782Z,101261.44
2023-03-29T05:35:36.040Z,101257.03
2023-03-29T05:40:42.780Z,101248.31
2023-03-29T05:46:04.610Z,101245.81
2023-03-29T05:51:09.881Z,101244.94
2023-03-29T05:56:16.045Z,101254.50
2023-03-29T06:01:19.470Z,101244.00
2023-03-29T06:06:35.765Z,101250.06
2023-03-29T06:11:39.331Z,101259.50
2023-03-29T06:17:02.733Z,101276.81
2023-03-29T06:22:07.123Z,101272.59
2023-03-29T06:27:10.661Z,101268.84
2023-03-29T06:32:13.841Z,101271.41
2023-03-29T06:37:27.676Z,101280.06
2023-03-29T06:42:43.339Z,101274.63
2023-03-29T06:48:24.710Z,101267.84
2023-03-29T06:53:29.222Z,101272.19
2023-03-29T06:58:36.703Z,101272.69
2023-03-29T07:03:47.476Z,101270.97
2023-03-29T07:08:59.529Z,101288.31
2023-03-29T07:14:30.874Z,101287.16
2023-03-29T07:19:34.795Z,101274.22
2023-03-29T07:25:02.224Z,101276.78
2023-03-29T07:30:11.143Z,101282.63
2023-03-29T07:35:17.691Z,101286.38
2023-03-29T07:40:23.937Z,101285.50
2023-03-29T07:45:33.293Z,101289.78
2023-03-29T07:50:42.032Z,101292.91
2023-03-29T07:55:49.149Z,101284.41
2023-03-29T08:01:30.251Z,101289.16
2023-03-29T08:06:55.326Z,101289.25
2023-03-29T08:12:05.249Z,101284.94
2023-03-29T08:17:12.092Z,101273.97
2023-03-29T08:22:22.045Z,101281.38
2023-03-29T08:27:54.572Z,101290.06
2023-03-29T08:33:16.196Z,101285.81
2023-03-29T08:38:21.740Z,101274.19
2023-03-29T08:43:56.321Z,101265.03
2023-03-29T08:49:13.183Z,101265.78
2023-03-29T08:54:20.538Z,101275.88
2023-03-29T08:59:45.579Z,101275.78
2023-03-29T09:04:52.445Z,101291.47
2023-03-29T09:10:17.580Z,101285.78
2023-03-29T09:15:27.802Z,101274.28
2023-03-29T09:21:08.457Z,101284.84
2023-03-29T09:26:19.561Z,101291.19
2023-03-29T09:31:43.401Z,101298.97
2023-03-29T09:36:51.365Z,101298.63
2023-03-29T09:41:58.101Z,101279.00
2023-03-29T09:47:04.611Z,101259.38
2023-03-29T09:52:13.833Z,101256.38
2023-03-29T09:57:21.362Z,101268.94
2023-03-29T10:02:30.700Z,101259.28
2023-03-29T10:07:44.666Z,101264.94
2023-03-29T10:12:51.749Z,101255.25
2023-03-29T10:18:00.826Z,101246.47
2023-03-29T10:23:06.365Z,101236.94
2023-03-29T10:28:13.099Z,101248.91
2023-03-29T10:33:21.223Z,101247.06
2023-03-29T10:38:25.913Z,101249.34
2023-03-29T10:43:32.241Z,101248.38
2023-03-29T10:48:37.314Z,101248.00
2023-03-29T10:53:40.257Z,101235.03
2023-03-29T10:58:56.386Z,101241.91
2023-03-29T11:04:19.413Z,101226.78
2023-03-29T11:09:27.726Z,101224.94
2023-03-29T11:14:39.933Z,101220.38
2023-03-29T11:19:55.281Z,101216.41
2023-03-29T11:25:11.162Z,101215.84
2023-03-29T11:30:18.809Z,101219.75
2023-03-29T11:35:34.713Z,101217.06
2023-03-29T11:40:46.287Z,101215.41
2023-03-29T11:45:53.476Z,101209.75
2023-03-29T11:51:00.967Z,101210.56
2023-03-29T11:56:10.232Z,101212.69
2023-03-29T12:01:15.028Z,101205.47
2023-03-29T12:06:22.652Z,101199.84
2023-03-29T12:11:31.166Z,101194.63
2023-03-29T12:16:37.217Z,101177.78
2023-03-29T12:21:42.651Z,101198.69
2023-03-29T12:26:57.784Z,101192.00
2023-03-29T12:32:15.969Z,101183.03
2023-03-29T12:37:38.186Z,101190.44
2023-03-29T12:43:03.993Z,101193.22
2023-03-29T12:48:31.829Z,101166.63
2023-03-29T12:53:37.754Z,101154.94
2023-03-29T12:58:51.719Z,101154.69
2023-03-29T13:03:58.742Z,101154.84
2023-03-29T13:09:05.733Z,101129.41
2023-03-29T13:14:14.321Z,101124.78
2023-03-29T13:19:28.262Z,101124.63
2023-03-29T13:24:42.111Z,101099.88
2023-03-29T13:29:53.473Z,101096.06
2023-03-29T13:35:00.704Z,101097.78
2023-03-29T13:40:45.346Z,101115.56
2023-03-29T13:46:19.851Z,101115.84
2023-03-29T13:51:29.271Z,101106.00
2023-03-29T13:56:35.689Z,101103.59
2023-03-29T14:01:45.887Z,101092.09
2023-03-29T14:07:14.423Z,101108.91
2023-03-29T14:12:20.389Z,101102.91
2023-03-29T14:17:26.046Z,101092.88
2023-03-29T14:22:32.456Z,101083.09
2023-03-29T14:27:37.109Z,101086.28
2023-03-29T14:32:41.431Z,101076.97
2023-03-29T14:37:44.528Z,101070.22
2023-03-29T14:42:48.478Z,101072.50
2023-03-29T14:47:53.102Z,101065.25
2023-03-29T14:52:57.816Z,101056.38
2023-03-29T14:58:01.305Z,101050.72
2023-03-29T15:03:14.170Z,101032.16
2023-03-29T15:08:20.637Z,101026.34
2023-03-29T15:13:25.232Z,101022.16
2023-03-29T15:18:32.050Z,100998.44
2023-03-29T15:23:39.415Z,100982.16
2023-03-29T15:28:49.640Z,100990.22
2023-03-29T15:34:04.031Z,100985.47
2023-03-29T15:39:10.718Z,100965.03
2023-03-29T15:44:17.382Z,100964.88
2023-03-29T15:49:21.897Z,100956.09
2023-03-29T15:54:24.977Z,100935.72
2023-03-29T15:59:27.955Z,100922.50
2023-03-29T16:04:32.178Z,100909.53
2023-03-29T16:09:35.536Z,100911.63
2023-03-29T16:14:38.378Z,100902.63
2023-03-29T16:19:42.653Z,100899.78
2023-03-29T16:24:45.649Z,100903.25
2023-03-29T16:29:48.541Z,100870.09
2023-03-29T16:34:53.839Z,100868.78
2023-03-29T16:39:58.144Z,100857.66
2023-03-29T16:45:02.230Z,100860.75
2023-03-29T16:50:08.136Z,100862.09
2023-03-29T16:55:12.740Z,100836.59
2023-03-29T17:00:19.512Z,100835.56
2023-03-29T17:05:25.296Z,100833.53
2023-03-29T17:10:28.219Z,100821.31
2023-03-29T17:15:31.365Z,100817.41
2023-03-29T17:20:35.685Z,100807.44
2023-03-29T17:25:38.735Z,100792.63
2023-03-29T17:30:41.815Z,100792.63
2023-03-29T17:35:46.246Z,100784.50
2023-03-29T17:40:53.185Z,100773.03
2023-03-29T17:45:56.286Z,100775.97
2023-03-29T17:51:00.431Z,100763.31
2023-03-29T17:56:03.526Z,100748.69
2023-03-29T18:01:10.542Z,100749.50
2023-03-29T18:06:16.685Z,100743.03
2023-03-29T18:11:23.831Z,100741.50
2023-03-29T18:16:26.855Z,100738.59
2023-03-29T18:21:31.045Z,100740.22
2023-03-29T18:26:33.897Z,100727.41
2023-03-29T18:31:36.874Z,100732.13
2023-03-29T18:36:41.174Z,100734.03
2023-03-29T18:41:43.965Z,100734.69
2023-03-29T18:46:48.019Z,100729.38
2023-03-29T18:51:52.292Z,100714.13
2023-03-29T18:56:57.859Z,100716.59
2023-03-29T19:02:01.921Z,100711.28
2023-03-29T19:07:06.820Z,100705.47
2023-03-29T19:12:09.841Z,100710.59
2023-03-29T19:17:12.712Z,100695.91
2023-03-29T19:22:17.356Z,100683.56
2023-03-29T19:27:20.324Z,100678.31
2023-03-29T19:32:23.053Z,100664.81
2023-03-29T19:37:27.327Z,100642.91
2023-03-29T19:42:30.274Z,100634.53
2023-03-29T19:47:33.204Z,100627.06
2023-03-29T19:52:37.416Z,100627.97
2023-03-29T19:57:40.160Z,100629.00
2023-03-29T20:02:42.954Z,100611.44
2023-03-29T20:07:47.141Z,100606.66
2023-03-29T20:12:50.960Z,100584.06
2023-03-29T20:17:55.326Z,100578.47
2023-03-29T20:23:05.184Z,100583.44
2023-03-29T20:28:08.584Z,100569.53
2023-03-29T20:33:11.392Z,100545.94
2023-03-29T20:38:15.810Z,100532.09
2023-03-29T20:43:20.081Z,100532.41
2023-03-29T20:48:24.742Z,100514.69
2023-03-29T20:53:34.574Z,100503.53
2023-03-29T20:58:41.794Z,100493.00
2023-03-29T21:03:44.711Z,100489.03
2023-03-29T21:08:50.401Z,100479.97
2023-03-29T21:13:53.889Z,100477.38
2023-03-29T21:18:56.688Z,100470.75
2023-03-29T21:24:00.762Z,100470.75
2023-03-29T21:29:03.660Z,100445.78
2023-03-29T21:34:06.489Z,100438.03
2023-03-29T21:39:10.883Z,100419.28
2023-03-29T21:44:13.860Z,100417.84
2023-03-29T21:49:16.662Z,100424.81
2023-03-29T21:54:20.817Z,100418.81
2023-03-29T21:59:23.614Z,100422.97
2023-03-29T22:04:35.771Z,100423.09
2023-03-29T22:09:42.317Z,100418.34
2023-03-29T22:14:45.321Z,100414.22
2023-03-29T22:19:48.056Z,100413.09
2023-03-29T22:24:54.744Z,100410.34
2023-03-29T22:29:58.609Z,100410.88
2023-03-29T22:35:01.538Z,100401.44
2023-03-29T22:40:09.044Z,100393.00
2023-03-29T22:45:12.238Z,100387.00
2023-03-29T22:50:15.112Z,100375.81
2023-03-29T22:55:19.293Z,100370.94
2023-03-29T23:00:22.411Z,100361.50
2023-03-29T23:05:25.288Z,100349.66
2023-03-29T23:10:30.562Z,100350.44
2023-03-29T23:15:33.952Z,100346.19
2023-03-29T23:20:36.780Z,100340.56
2023-03-29T23:25:41.426Z,100334.16
2023-03-29T23:30:44.527Z,100338.47
2023-03-29T23:35:47.440Z,100343.84
2023-03-29T23:40:58.975Z,100344.03
2023-03-29T23:46:03.650Z,100341.78
2023-03-29T23:51:08.145Z,100345.34
2023-03-29T23:56:12.627Z,100356.22
